Home   Weather   USA   Austin   Past weeks
Flag for USA

Past Weather in Austin, Texas, USA — October 2018

Currently: 75 °F. Mild. (Weather station: Camp Mabry / Austin City, USA). See more current weather

October 2018 Weather in Austin — Graph

°F

High & Low Weather Summary for October 2018

 TemperatureHumidityPressure
High91 °F (Oct 3, 1:51 pm)96% (Oct 28, 12:51 am)30.35 "Hg (Oct 28, 12:51 am)
Low37 °F (Oct 31, 2:51 am)32% (Oct 28, 6:51 pm)29.65 "Hg (Oct 9, 3:51 pm)
Average69 °F79%30.02 "Hg
* Reported Oct 1 12:07 am — Oct 31 11:51 pm, Austin. Weather by CustomWeather, © 2023

Note: Actual official high and low records may vary slightly from our data, if they occured in-between our weather recording intervals... More about our weather records

Austin Weather History for October 1, 2018

Scroll right to see more
 ConditionsComfort  
Time TempWeatherWind HumidityBarometerVisibility
12:07 am
Mon, Oct 1
73 °FMostly cloudy.5 mph90%30.11 "Hg10 mi
12:51 am73 °FLow clouds.7 mph90%30.08 "Hg10 mi
2:06 am73 °FPassing clouds.3 mph88%30.11 "Hg10 mi
2:14 am72 °FPassing clouds.No wind91%30.11 "Hg10 mi
2:34 am73 °FPassing clouds.5 mph88%30.12 "Hg10 mi
2:51 am73 °FLow clouds.5 mph88%30.08 "Hg10 mi
3:51 am72 °FPassing clouds.No wind87%30.07 "Hg10 mi
4:00 am72 °FPassing clouds.No wind87%30.11 "Hg10 mi
4:51 am71 °FPassing clouds.No wind90%30.07 "Hg10 mi
5:16 am72 °FLow clouds.No wind87%30.11 "Hg10 mi
5:51 am72 °FLow clouds.No wind91%30.08 "Hg10 mi
6:51 am72 °FLow clouds.No wind91%30.09 "Hg10 mi
7:51 am73 °FLow clouds.No wind88%30.11 "Hg10 mi
8:26 am72 °FLow clouds.No wind93%30.16 "Hg10 mi
8:51 am72 °FLight rain. Low clouds.No wind93%30.14 "Hg10 mi
9:51 am74 °FLight rain. Low clouds.No wind91%30.14 "Hg10 mi
10:31 am74 °FLow clouds.3 mph91%30.18 "Hg10 mi
10:51 am75 °FLight rain. Low clouds.5 mph90%30.15 "Hg10 mi
11:51 am77 °FLight rain. Low clouds.No wind85%30.15 "Hg10 mi
12:10 pm79 °FLight rain. Mostly cloudy.No wind82%30.18 "Hg10 mi
12:51 pm80 °FLight rain. Cloudy.3 mph81%30.13 "Hg10 mi
1:03 pm81 °FLight rain. Broken clouds.No wind79%30.16 "Hg10 mi
1:51 pm83 °FPassing clouds.6 mph70%30.10 "Hg10 mi
2:51 pm77 °FLight rain. Broken clouds.3 mph90%30.08 "Hg10 mi
3:51 pm83 °FSunny.No wind68%30.04 "Hg10 mi
4:51 pm85 °FSunny.No wind65%30.03 "Hg10 mi
5:51 pm83 °FSunny.5 mph68%30.03 "Hg10 mi
6:51 pm82 °FSunny.6 mph67%30.04 "Hg10 mi
7:51 pm80 °FClear.3 mph74%30.04 "Hg10 mi
8:51 pm79 °FClear.3 mph77%30.06 "Hg10 mi
9:51 pm78 °FPassing clouds.3 mph79%30.08 "Hg10 mi
10:51 pm78 °FPassing clouds.7 mph79%30.09 "Hg10 mi
11:21 pm78 °FMostly cloudy.3 mph76%30.13 "Hg10 mi
11:51 pm78 °FPartly cloudy.7 mph76%30.08 "Hg10 mi
Weather by CustomWeather, © 2023

See weather overview